AirNav   Everest Fuels
 
 458 users online  

7PA0 OPA Heliport
Orwigsburg, Pennsylvania, USA

GOING TO ORWIGSBURG?


FAA INFORMATION EFFECTIVE 07 NOVEMBER 2019

Location

FAA Identifier: 7PA0
Lat/Long: 40-39-03.7000N 076-06-50.8000W
40-39.061667N 076-06.846667W
40.6510278,-76.1141111
(estimated)
Elevation: 670 ft. / 204 m (estimated)
From city: 1 mile SW of ORWIGSBURG, PA
Time zone: UTC -5 (UTC -4 during Daylight Saving Time)
Zip code: 17961

Heliport Operations

Heliport use: Private use. Permission required prior to landing
Activation date: 05/2017
Control tower: no
ARTCC: NEW YORK CENTER
FSS: WILLIAMSPORT FLIGHT SERVICE STATION
Attendance: 
Wind indicator: yes
Segmented circle: yes

Heliport Communications

WX AWOS-3 at ZER (12 nm W): 127.575 (570-544-2778)
WX ASOS at RDG (18 nm SE): PHONE 610-372-9863
WX AWOS-3PT at 22N (19 nm NE): 119.350 (570-386-3423)

Nearby radio navigation aids

VOR radial/distance  VOR name  Freq  Var
ETXr291/20.0EAST TEXAS VOR/DME110.2009W
RAVr086/22.9RAVINE VORTAC114.6011W
FJCr271/30.3ALLENTOWN VORTAC117.5010W
LRPr023/32.9LANCASTER VOR/DME117.3009W
MIPr141/33.5MILTON VORTAC109.2009W
SEGr111/36.0SELINSGROVE VOR/DME110.4008W
PTWr324/36.1POTTSTOWN VORTAC116.5009W

 
NDB name  Hdg/Dist  Freq  Var  ID
BELLGROVE067/23.832810WBZJ -... --.. .---

Heliport Services

Runway Information

Helipad H1

Dimensions: 40 x 40 ft. / 12 x 12 m
Surface: turf
Traffic pattern: leftleft

Heliport Ownership and Management from official FAA records

Ownership: Privately-owned
Owner: GREGORY J SOLGA
490 CLARK DR
ORWIGSBURG, PA 17961
Phone 5704490247
Manager: GREGORY J SOLGA
490 CLARK DR
ORWIGSBURG, PA 17961
Phone 5704490247

Additional Remarks

FOR CD CTC READING ATCT AT 610-478-9562; WHEN CLSD CTC HARRISBURG APCH AT 800-932-0712.

Instrument Procedures

There are no published instrument procedures at 7PA0.

Some nearby airports with instrument procedures:

KZER - Schuylkill County/Joe Zerbey Airport (12 nm W)
KRDG - Reading Regional Airport/Carl A Spaatz Field (18 nm SE)
22N - Jake Arner Memorial Airport (19 nm NE)
9D4 - Deck Airport (20 nm SW)
KHZL - Hazleton Regional Airport (21 nm N)
 
Loc | Ops | Rwys | IFR | FBO | Links
Com | Nav | Svcs | Stats | Notes
Aerial photo
No photo
 
Airport distance calculator
Flying to OPA Heliport? Find the distance to fly.

From to 7PA0

Sunrise and sunset
Times for 19-Nov-2019
 Local
(UTC-5)
 Zulu
(UTC)
Morning civil twilight06:2711:27
Sunrise06:5711:57
Sunset16:4321:43
Evening civil twilight17:1322:13

Current date and time
Zulu (UTC)  19-Nov-2019 08:55:05
Local (UTC-5)  19-Nov-2019 03:55:05
 
METAR
KRDG 
18nm S 
190754Z AUTO 00000KT 10SM OVC023 04/03 A2973 RMK AO2 SLP073 T00440033
K22N 
19nm NE 
190836Z AUTO 00000KT 10SM OVC026 01/01 A2972 RMK AO2
KHZL 
21nm N 
190836Z AUTO 00000KT 3SM BR OVC004 01/01 A2971 RMK AO2
KMUI 
25nm SW 
190756Z AUTO 24004KT 10SM SCT065 BKN080 OVC095 04/01 A2973 RMK AO2 SLP073 T00350014
KXLL 
29nm E 
190835Z AUTO 23005KT 10SM OVC028 04/03 A2973 RMK AO2
KABE 
30nm E 
190751Z 24003KT 8SM OVC028 05/02 A2973 RMK AO2 SLP068 T00500022 $
KLNS 
33nm S 
190839Z AUTO 27006KT 6SM HZ SCT015 BKN065 OVC090 04/02 A2974 RMK AO2 T00440017
KSEG 
36nm W 
190753Z AUTO 00000KT 7SM SCT085 OVC110 02/01 A2974 RMK AO2 SLP075 T00220011
KUKT 
36nm E 
190835Z AUTO 00000KT 8SM OVC025 04/03 A2972 RMK A01
KPTW 
36nm SE 
190818Z AUTO 00000KT 7SM FEW023 BKN095 OVC110 03/03 A2974 RMK AO2 T00280028
TAF
KRDG 
18nm S 
190538Z 1906/2006 00000KT P6SM BKN035 TEMPO 1909/1912 4SM BR FM191200 00000KT P6SM SCT040 FM191500 VRB03KT P6SM SCT150 FM192100 31005KT P6SM BKN100
NOTAMs
Click for the latest NOTAMs
NOTAMs are issued by the DoD/FAA and will open in a separate window not controlled by AirNav.

 

 
 

Would you like to see your business listed on this page?

 If your business provides an interesting product or service to pilots, flight crews, aircraft, or users of the OPA Heliport, you should consider listing it here.  To start the listing process, click on the button below
 
Add a business
 

Other Pages about OPA Heliport

Update a link
 
Copyright © AirNav, LLC. All rights reserved. Privacy Policy  Contact